sensor_id;sensor_type;location;lat;lon;timestamp;P1;durP1;ratioP1;P2;durP2;ratioP2
32329;SDS011;18807;52.434;13.238;2022-12-18T00:05:59;62.92;;;16.52;;
32329;SDS011;18807;52.434;13.238;2022-12-18T00:13:34;44.63;;;13.35;;
32329;SDS011;18807;52.434;13.238;2022-12-18T00:21:10;50.67;;;15.63;;
32329;SDS011;18807;52.434;13.238;2022-12-18T00:28:46;56.63;;;15.55;;
32329;SDS011;18807;52.434;13.238;2022-12-18T00:36:21;53.88;;;16.30;;
32329;SDS011;18807;52.434;13.238;2022-12-18T00:43:57;49.95;;;15.02;;
32329;SDS011;18807;52.434;13.238;2022-12-18T00:51:31;37.90;;;14.05;;
32329;SDS011;18807;52.434;13.238;2022-12-18T00:59:07;57.13;;;16.67;;
32329;SDS011;18807;52.434;13.238;2022-12-18T01:06:40;50.50;;;14.25;;
32329;SDS011;18807;52.434;13.238;2022-12-18T01:14:17;53.80;;;14.38;;
32329;SDS011;18807;52.434;13.238;2022-12-18T01:21:51;38.47;;;14.73;;
32329;SDS011;18807;52.434;13.238;2022-12-18T01:29:26;45.03;;;13.85;;
32329;SDS011;18807;52.434;13.238;2022-12-18T01:37:01;47.33;;;14.52;;
32329;SDS011;18807;52.434;13.238;2022-12-18T01:52:56;46.60;;;14.05;;
32329;SDS011;18807;52.434;13.238;2022-12-18T02:00:34;48.97;;;13.07;;
32329;SDS011;18807;52.434;13.238;2022-12-18T02:08:09;46.95;;;13.38;;
32329;SDS011;18807;52.434;13.238;2022-12-18T02:15:52;46.83;;;13.25;;
32329;SDS011;18807;52.434;13.238;2022-12-18T02:23:38;35.40;;;12.20;;
32329;SDS011;18807;52.434;13.238;2022-12-18T02:31:23;51.58;;;14.68;;
32329;SDS011;18807;52.434;13.238;2022-12-18T02:38:59;48.45;;;14.05;;
32329;SDS011;18807;52.434;13.238;2022-12-18T02:46:37;38.53;;;12.60;;
32329;SDS011;18807;52.434;13.238;2022-12-18T02:54:15;45.63;;;14.15;;
32329;SDS011;18807;52.434;13.238;2022-12-18T03:02:15;46.33;;;13.55;;
32329;SDS011;18807;52.434;13.238;2022-12-18T03:09:54;48.88;;;14.40;;
32329;SDS011;18807;52.434;13.238;2022-12-18T03:17:32;45.88;;;14.65;;
32329;SDS011;18807;52.434;13.238;2022-12-18T03:25:07;58.30;;;14.98;;
32329;SDS011;18807;52.434;13.238;2022-12-18T03:32:46;53.17;;;14.68;;
32329;SDS011;18807;52.434;13.238;2022-12-18T03:40:24;49.42;;;13.98;;
32329;SDS011;18807;52.434;13.238;2022-12-18T03:48:05;50.45;;;15.52;;
32329;SDS011;18807;52.434;13.238;2022-12-18T03:55:43;63.55;;;16.00;;
32329;SDS011;18807;52.434;13.238;2022-12-18T04:03:18;55.03;;;16.40;;
32329;SDS011;18807;52.434;13.238;2022-12-18T04:10:58;60.42;;;18.02;;
32329;SDS011;18807;52.434;13.238;2022-12-18T04:18:34;51.38;;;16.25;;
32329;SDS011;18807;52.434;13.238;2022-12-18T04:26:09;51.30;;;15.00;;
32329;SDS011;18807;52.434;13.238;2022-12-18T04:33:44;69.88;;;18.80;;
32329;SDS011;18807;52.434;13.238;2022-12-18T04:41:18;63.20;;;17.25;;
32329;SDS011;18807;52.434;13.238;2022-12-18T04:48:53;55.10;;;16.00;;
32329;SDS011;18807;52.434;13.238;2022-12-18T04:56:27;48.33;;;14.75;;
32329;SDS011;18807;52.434;13.238;2022-12-18T05:04:02;48.72;;;14.40;;
32329;SDS011;18807;52.434;13.238;2022-12-18T05:11:37;49.83;;;16.17;;
32329;SDS011;18807;52.434;13.238;2022-12-18T05:19:12;56.90;;;17.67;;
32329;SDS011;18807;52.434;13.238;2022-12-18T05:26:46;51.10;;;15.68;;
32329;SDS011;18807;52.434;13.238;2022-12-18T05:34:21;56.50;;;16.45;;
32329;SDS011;18807;52.434;13.238;2022-12-18T05:41:55;57.25;;;16.15;;
32329;SDS011;18807;52.434;13.238;2022-12-18T05:49:30;45.95;;;15.43;;
32329;SDS011;18807;52.434;13.238;2022-12-18T05:57:05;42.17;;;14.50;;
32329;SDS011;18807;52.434;13.238;2022-12-18T06:04:41;42.25;;;12.80;;
32329;SDS011;18807;52.434;13.238;2022-12-18T06:12:15;41.90;;;14.23;;
32329;SDS011;18807;52.434;13.238;2022-12-18T06:19:50;36.15;;;12.27;;
32329;SDS011;18807;52.434;13.238;2022-12-18T06:27:24;38.67;;;12.07;;
32329;SDS011;18807;52.434;13.238;2022-12-18T06:34:59;33.35;;;13.00;;
32329;SDS011;18807;52.434;13.238;2022-12-18T06:42:33;45.53;;;14.10;;
32329;SDS011;18807;52.434;13.238;2022-12-18T06:50:09;36.50;;;11.63;;
32329;SDS011;18807;52.434;13.238;2022-12-18T06:57:43;37.75;;;12.40;;
32329;SDS011;18807;52.434;13.238;2022-12-18T07:05:19;51.70;;;15.45;;
32329;SDS011;18807;52.434;13.238;2022-12-18T07:12:52;51.33;;;15.43;;
32329;SDS011;18807;52.434;13.238;2022-12-18T07:20:28;43.50;;;13.57;;
32329;SDS011;18807;52.434;13.238;2022-12-18T07:28:01;52.28;;;14.77;;
32329;SDS011;18807;52.434;13.238;2022-12-18T07:35:37;42.30;;;14.65;;
32329;SDS011;18807;52.434;13.238;2022-12-18T07:43:11;45.58;;;14.10;;
32329;SDS011;18807;52.434;13.238;2022-12-18T07:50:47;63.83;;;17.95;;
32329;SDS011;18807;52.434;13.238;2022-12-18T07:58:21;68.63;;;20.38;;
32329;SDS011;18807;52.434;13.238;2022-12-18T08:05:59;76.10;;;22.95;;
32329;SDS011;18807;52.434;13.238;2022-12-18T08:13:33;59.70;;;18.13;;
32329;SDS011;18807;52.434;13.238;2022-12-18T08:21:09;56.25;;;17.25;;
32329;SDS011;18807;52.434;13.238;2022-12-18T08:28:44;59.03;;;17.00;;
32329;SDS011;18807;52.434;13.238;2022-12-18T08:36:20;49.13;;;15.18;;
32329;SDS011;18807;52.434;13.238;2022-12-18T08:43:54;52.22;;;13.98;;
32329;SDS011;18807;52.434;13.238;2022-12-18T08:51:47;47.65;;;14.38;;
32329;SDS011;18807;52.434;13.238;2022-12-18T08:59:21;54.30;;;16.88;;
32329;SDS011;18807;52.434;13.238;2022-12-18T09:06:57;55.33;;;15.65;;
32329;SDS011;18807;52.434;13.238;2022-12-18T09:14:30;47.42;;;14.85;;
32329;SDS011;18807;52.434;13.238;2022-12-18T09:22:06;55.90;;;15.20;;
32329;SDS011;18807;52.434;13.238;2022-12-18T09:29:39;52.08;;;17.27;;
32329;SDS011;18807;52.434;13.238;2022-12-18T09:37:15;54.95;;;17.40;;
32329;SDS011;18807;52.434;13.238;2022-12-18T09:44:50;47.90;;;15.48;;
32329;SDS011;18807;52.434;13.238;2022-12-18T09:52:28;54.45;;;16.52;;
32329;SDS011;18807;52.434;13.238;2022-12-18T10:00:09;50.53;;;17.05;;
32329;SDS011;18807;52.434;13.238;2022-12-18T10:07:55;53.65;;;17.50;;
32329;SDS011;18807;52.434;13.238;2022-12-18T10:15:36;48.88;;;15.18;;
32329;SDS011;18807;52.434;13.238;2022-12-18T10:23:22;56.72;;;17.35;;
32329;SDS011;18807;52.434;13.238;2022-12-18T10:31:01;50.58;;;16.65;;
32329;SDS011;18807;52.434;13.238;2022-12-18T10:38:37;52.95;;;15.20;;
32329;SDS011;18807;52.434;13.238;2022-12-18T10:46:14;52.30;;;16.90;;
32329;SDS011;18807;52.434;13.238;2022-12-18T10:53:59;50.65;;;16.17;;
32329;SDS011;18807;52.434;13.238;2022-12-18T11:01:45;38.67;;;13.93;;
32329;SDS011;18807;52.434;13.238;2022-12-18T11:09:23;40.20;;;13.63;;
32329;SDS011;18807;52.434;13.238;2022-12-18T11:16:58;37.85;;;13.88;;
32329;SDS011;18807;52.434;13.238;2022-12-18T11:24:56;47.28;;;15.30;;
32329;SDS011;18807;52.434;13.238;2022-12-18T11:32:53;41.05;;;15.77;;
32329;SDS011;18807;52.434;13.238;2022-12-18T11:40:32;40.78;;;15.02;;
32329;SDS011;18807;52.434;13.238;2022-12-18T11:48:14;45.67;;;15.37;;
32329;SDS011;18807;52.434;13.238;2022-12-18T11:56:11;39.53;;;14.10;;
32329;SDS011;18807;52.434;13.238;2022-12-18T12:04:03;42.10;;;15.52;;
32329;SDS011;18807;52.434;13.238;2022-12-18T12:12:00;45.05;;;16.05;;
32329;SDS011;18807;52.434;13.238;2022-12-18T12:19:46;42.33;;;13.75;;
32329;SDS011;18807;52.434;13.238;2022-12-18T12:27:29;43.80;;;14.57;;
32329;SDS011;18807;52.434;13.238;2022-12-18T12:35:17;42.03;;;14.65;;
32329;SDS011;18807;52.434;13.238;2022-12-18T12:43:00;40.92;;;13.50;;
32329;SDS011;18807;52.434;13.238;2022-12-18T12:50:46;41.00;;;14.45;;
32329;SDS011;18807;52.434;13.238;2022-12-18T12:58:25;28.75;;;12.00;;
32329;SDS011;18807;52.434;13.238;2022-12-18T13:06:08;27.42;;;13.00;;
32329;SDS011;18807;52.434;13.238;2022-12-18T13:13:49;30.00;;;12.40;;
32329;SDS011;18807;52.434;13.238;2022-12-18T13:21:27;33.50;;;12.60;;
32329;SDS011;18807;52.434;13.238;2022-12-18T13:29:04;35.13;;;14.20;;
32329;SDS011;18807;52.434;13.238;2022-12-18T13:36:38;35.95;;;13.75;;
32329;SDS011;18807;52.434;13.238;2022-12-18T13:44:20;34.17;;;14.18;;
32329;SDS011;18807;52.434;13.238;2022-12-18T13:51:58;37.58;;;15.23;;
32329;SDS011;18807;52.434;13.238;2022-12-18T13:59:36;32.17;;;13.15;;
32329;SDS011;18807;52.434;13.238;2022-12-18T14:07:12;31.42;;;12.57;;
32329;SDS011;18807;52.434;13.238;2022-12-18T14:14:50;36.63;;;13.75;;
32329;SDS011;18807;52.434;13.238;2022-12-18T14:22:27;40.08;;;15.38;;
32329;SDS011;18807;52.434;13.238;2022-12-18T14:30:15;36.60;;;14.35;;
32329;SDS011;18807;52.434;13.238;2022-12-18T14:53:39;65.60;;;21.00;;
32329;SDS011;18807;52.434;13.238;2022-12-18T15:01:27;62.33;;;20.98;;
32329;SDS011;18807;52.434;13.238;2022-12-18T15:09:04;65.45;;;22.58;;
32329;SDS011;18807;52.434;13.238;2022-12-18T15:16:55;66.03;;;23.25;;
32329;SDS011;18807;52.434;13.238;2022-12-18T15:24:30;54.33;;;19.60;;
32329;SDS011;18807;52.434;13.238;2022-12-18T15:32:19;51.08;;;18.15;;
32329;SDS011;18807;52.434;13.238;2022-12-18T15:39:54;55.42;;;18.38;;
32329;SDS011;18807;52.434;13.238;2022-12-18T15:47:29;50.45;;;18.90;;
32329;SDS011;18807;52.434;13.238;2022-12-18T15:55:05;52.58;;;20.42;;
32329;SDS011;18807;52.434;13.238;2022-12-18T16:03:02;54.60;;;19.27;;
32329;SDS011;18807;52.434;13.238;2022-12-18T16:10:37;39.05;;;15.25;;
32329;SDS011;18807;52.434;13.238;2022-12-18T16:18:12;39.25;;;14.93;;
32329;SDS011;18807;52.434;13.238;2022-12-18T16:25:46;41.78;;;15.85;;
32329;SDS011;18807;52.434;13.238;2022-12-18T16:33:21;40.75;;;15.90;;
32329;SDS011;18807;52.434;13.238;2022-12-18T16:40:55;39.25;;;15.63;;
32329;SDS011;18807;52.434;13.238;2022-12-18T16:48:48;36.13;;;13.70;;
32329;SDS011;18807;52.434;13.238;2022-12-18T16:56:22;34.42;;;14.57;;
32329;SDS011;18807;52.434;13.238;2022-12-18T17:03:59;35.15;;;15.25;;
32329;SDS011;18807;52.434;13.238;2022-12-18T17:11:35;34.38;;;14.93;;
32329;SDS011;18807;52.434;13.238;2022-12-18T17:19:10;36.13;;;15.32;;
32329;SDS011;18807;52.434;13.238;2022-12-18T17:26:48;38.42;;;14.23;;
32329;SDS011;18807;52.434;13.238;2022-12-18T17:34:24;39.58;;;15.10;;
32329;SDS011;18807;52.434;13.238;2022-12-18T17:41:57;34.08;;;14.88;;
32329;SDS011;18807;52.434;13.238;2022-12-18T17:49:33;38.38;;;15.05;;
32329;SDS011;18807;52.434;13.238;2022-12-18T17:57:07;32.78;;;14.05;;
32329;SDS011;18807;52.434;13.238;2022-12-18T18:04:43;39.03;;;16.17;;
32329;SDS011;18807;52.434;13.238;2022-12-18T18:12:17;38.30;;;15.25;;
32329;SDS011;18807;52.434;13.238;2022-12-18T18:20:10;42.60;;;15.73;;
32329;SDS011;18807;52.434;13.238;2022-12-18T18:27:53;42.95;;;14.90;;
32329;SDS011;18807;52.434;13.238;2022-12-18T18:35:29;51.50;;;18.30;;
32329;SDS011;18807;52.434;13.238;2022-12-18T18:43:23;37.70;;;15.25;;
32329;SDS011;18807;52.434;13.238;2022-12-18T18:50:58;40.50;;;16.92;;
32329;SDS011;18807;52.434;13.238;2022-12-18T18:58:34;42.25;;;17.27;;
32329;SDS011;18807;52.434;13.238;2022-12-18T19:06:11;41.60;;;17.67;;
32329;SDS011;18807;52.434;13.238;2022-12-18T19:13:48;51.42;;;18.23;;
32329;SDS011;18807;52.434;13.238;2022-12-18T19:21:26;52.65;;;17.95;;
32329;SDS011;18807;52.434;13.238;2022-12-18T19:29:04;46.47;;;19.02;;
32329;SDS011;18807;52.434;13.238;2022-12-18T19:36:42;41.45;;;15.80;;
32329;SDS011;18807;52.434;13.238;2022-12-18T19:44:16;49.50;;;18.98;;
32329;SDS011;18807;52.434;13.238;2022-12-18T19:51:52;48.00;;;16.98;;
32329;SDS011;18807;52.434;13.238;2022-12-18T19:59:26;40.92;;;17.02;;
32329;SDS011;18807;52.434;13.238;2022-12-18T20:07:01;46.78;;;17.67;;
32329;SDS011;18807;52.434;13.238;2022-12-18T20:14:36;49.88;;;18.17;;
32329;SDS011;18807;52.434;13.238;2022-12-18T20:22:11;47.50;;;18.48;;
32329;SDS011;18807;52.434;13.238;2022-12-18T20:29:46;43.08;;;18.05;;
32329;SDS011;18807;52.434;13.238;2022-12-18T20:37:21;48.10;;;19.33;;
32329;SDS011;18807;52.434;13.238;2022-12-18T20:44:57;47.35;;;18.20;;
32329;SDS011;18807;52.434;13.238;2022-12-18T20:52:33;48.25;;;18.85;;
32329;SDS011;18807;52.434;13.238;2022-12-18T21:00:08;52.42;;;18.20;;
32329;SDS011;18807;52.434;13.238;2022-12-18T21:07:51;42.42;;;18.63;;
32329;SDS011;18807;52.434;13.238;2022-12-18T21:15:25;47.03;;;18.20;;
32329;SDS011;18807;52.434;13.238;2022-12-18T21:23:01;50.17;;;18.73;;
32329;SDS011;18807;52.434;13.238;2022-12-18T21:30:47;49.65;;;17.65;;
32329;SDS011;18807;52.434;13.238;2022-12-18T21:38:23;53.10;;;19.10;;
32329;SDS011;18807;52.434;13.238;2022-12-18T21:45:57;48.30;;;19.42;;
32329;SDS011;18807;52.434;13.238;2022-12-18T21:53:32;46.08;;;17.17;;
32329;SDS011;18807;52.434;13.238;2022-12-18T22:01:06;50.53;;;18.58;;
32329;SDS011;18807;52.434;13.238;2022-12-18T22:08:41;47.42;;;19.02;;
32329;SDS011;18807;52.434;13.238;2022-12-18T22:16:16;45.10;;;17.55;;
32329;SDS011;18807;52.434;13.238;2022-12-18T22:23:55;46.63;;;17.17;;
32329;SDS011;18807;52.434;13.238;2022-12-18T22:31:30;47.95;;;18.15;;
32329;SDS011;18807;52.434;13.238;2022-12-18T22:39:08;54.30;;;17.58;;
32329;SDS011;18807;52.434;13.238;2022-12-18T22:46:44;44.20;;;16.90;;
32329;SDS011;18807;52.434;13.238;2022-12-18T22:54:28;42.03;;;15.80;;
32329;SDS011;18807;52.434;13.238;2022-12-18T23:02:02;41.45;;;15.75;;
32329;SDS011;18807;52.434;13.238;2022-12-18T23:09:37;47.38;;;16.33;;
32329;SDS011;18807;52.434;13.238;2022-12-18T23:17:12;45.00;;;17.60;;
32329;SDS011;18807;52.434;13.238;2022-12-18T23:24:47;43.70;;;15.95;;
32329;SDS011;18807;52.434;13.238;2022-12-18T23:32:21;43.42;;;15.45;;
32329;SDS011;18807;52.434;13.238;2022-12-18T23:39:56;41.10;;;15.93;;
32329;SDS011;18807;52.434;13.238;2022-12-18T23:47:30;42.83;;;15.10;;
32329;SDS011;18807;52.434;13.238;2022-12-18T23:55:06;37.45;;;14.65;;
